createdAt,value
2019-02-11T00:00:26.243Z,301.71
2019-02-11T00:01:26.057Z,302.02
2019-02-11T00:02:26.050Z,301.91
2019-02-11T00:03:26.032Z,302.07
2019-02-11T00:04:26.092Z,301.88
2019-02-11T00:05:26.025Z,302.07
2019-02-11T00:06:26.033Z,302.07
2019-02-11T00:07:26.007Z,302.03
2019-02-11T00:08:32.862Z,301.83
2019-02-11T00:09:26.033Z,302.00
2019-02-11T00:10:25.961Z,301.90
2019-02-11T00:11:25.960Z,302.00
2019-02-11T00:12:26.124Z,302.09
2019-02-11T00:13:25.961Z,302.13
2019-02-11T00:14:25.953Z,302.26
2019-02-11T00:15:27.244Z,302.04
2019-02-11T00:16:25.955Z,302.00
2019-02-11T00:17:26.748Z,302.09
2019-02-11T00:18:25.908Z,302.26
2019-02-11T00:19:26.821Z,301.97
2019-02-11T00:20:25.907Z,301.88
2019-02-11T00:21:25.924Z,301.99
2019-02-11T00:22:25.941Z,302.04
2019-02-11T00:23:25.935Z,301.99
2019-02-11T00:24:25.873Z,301.98
2019-02-11T00:25:25.887Z,302.12
2019-02-11T00:26:25.871Z,301.95
2019-02-11T00:27:25.823Z,301.98
2019-02-11T00:28:25.849Z,302.15
2019-02-11T00:29:25.948Z,302.00
2019-02-11T00:30:25.869Z,302.18
2019-02-11T00:31:25.832Z,301.99
2019-02-11T00:32:25.785Z,301.83
2019-02-11T00:33:25.787Z,301.93
2019-02-11T00:34:25.715Z,302.07
2019-02-11T00:35:25.768Z,301.99
2019-02-11T00:36:25.812Z,302.04
2019-02-11T00:37:25.696Z,301.97
2019-02-11T00:38:25.734Z,302.12
2019-02-11T00:39:25.705Z,302.00
2019-02-11T00:40:25.649Z,302.21
2019-02-11T00:41:25.654Z,302.02
2019-02-11T00:42:25.666Z,302.00
2019-02-11T00:43:25.686Z,301.97
2019-02-11T00:44:25.617Z,301.87
2019-02-11T00:45:25.607Z,302.06
2019-02-11T00:46:25.588Z,302.00
2019-02-11T00:47:25.579Z,301.97
2019-02-11T00:48:25.592Z,301.94
2019-02-11T00:49:25.647Z,302.05
2019-02-11T00:50:25.557Z,302.00
2019-02-11T00:51:25.612Z,301.79
2019-02-11T00:52:25.573Z,301.96
2019-02-11T00:53:25.517Z,302.14
2019-02-11T00:54:25.529Z,301.86
2019-02-11T00:55:25.575Z,302.04
2019-02-11T00:56:25.507Z,301.92
2019-02-11T00:57:25.523Z,301.95
2019-02-11T00:58:25.495Z,301.97
2019-02-11T00:59:25.462Z,301.90
2019-02-11T01:00:25.495Z,302.07
2019-02-11T01:01:25.634Z,301.89
2019-02-11T01:02:25.452Z,301.84
2019-02-11T01:03:25.447Z,301.93
2019-02-11T01:04:25.400Z,301.88
2019-02-11T01:05:25.520Z,302.13
2019-02-11T01:06:25.436Z,302.06
2019-02-11T01:07:25.380Z,301.65
2019-02-11T01:08:25.376Z,302.19
2019-02-11T01:09:25.437Z,301.90
2019-02-11T01:10:25.419Z,302.17
2019-02-11T01:11:25.450Z,302.05
2019-02-11T01:12:25.332Z,301.77
2019-02-11T01:13:27.907Z,301.75
2019-02-11T01:14:25.305Z,301.95
2019-02-11T01:15:25.315Z,301.88
2019-02-11T01:16:25.427Z,301.92
2019-02-11T01:17:25.259Z,301.96
2019-02-11T01:18:25.272Z,301.72
2019-02-11T01:19:25.256Z,301.88
2019-02-11T01:20:25.255Z,301.90
2019-02-11T01:21:25.270Z,301.79
2019-02-11T01:22:25.264Z,301.57
2019-02-11T01:23:25.226Z,301.64
2019-02-11T01:24:25.216Z,301.52
2019-02-11T01:25:25.207Z,301.74
2019-02-11T01:26:25.197Z,301.52
2019-02-11T01:27:25.202Z,301.58
2019-02-11T01:28:25.185Z,301.57
2019-02-11T01:29:25.192Z,301.67
2019-02-11T01:30:25.149Z,301.58
2019-02-11T01:31:25.159Z,301.62
2019-02-11T01:32:25.229Z,301.42
2019-02-11T01:33:25.178Z,301.68
2019-02-11T01:34:25.218Z,301.44
2019-02-11T01:35:25.100Z,301.63
2019-02-11T01:36:25.101Z,301.35
2019-02-11T01:37:25.120Z,301.56
2019-02-11T01:38:25.171Z,301.27
2019-02-11T01:39:25.096Z,301.55
2019-02-11T01:40:25.024Z,301.52
2019-02-11T01:41:25.067Z,301.43
2019-02-11T01:42:25.016Z,301.39
2019-02-11T01:43:25.046Z,301.34
2019-02-11T01:44:25.033Z,301.40
2019-02-11T01:45:25.021Z,301.33
2019-02-11T01:46:24.981Z,301.32
2019-02-11T01:47:25.053Z,301.42
2019-02-11T01:48:24.965Z,301.42
2019-02-11T01:49:24.944Z,301.44
2019-02-11T01:50:24.938Z,301.38
2019-02-11T01:51:24.897Z,301.41
2019-02-11T01:52:24.900Z,301.38
2019-02-11T01:53:24.914Z,301.36
2019-02-11T01:54:24.967Z,301.41
2019-02-11T01:55:24.923Z,301.52
2019-02-11T01:56:24.893Z,301.31
2019-02-11T01:57:24.852Z,301.55
2019-02-11T01:58:24.885Z,301.52
2019-02-11T01:59:24.861Z,301.69
2019-02-11T02:00:24.871Z,301.44
2019-02-11T02:01:24.887Z,301.75
2019-02-11T02:02:24.825Z,301.65
2019-02-11T02:03:24.798Z,301.70
2019-02-11T02:04:24.846Z,301.64
2019-02-11T02:05:24.800Z,301.68
2019-02-11T02:06:24.844Z,301.68
2019-02-11T02:07:24.784Z,301.57
2019-02-11T02:08:24.772Z,301.83
2019-02-11T02:09:24.761Z,301.83
2019-02-11T02:10:24.815Z,301.69
2019-02-11T02:11:24.724Z,301.73
2019-02-11T02:12:24.722Z,301.76
2019-02-11T02:13:24.709Z,301.96
2019-02-11T02:14:24.739Z,301.78
2019-02-11T02:15:24.701Z,301.85
2019-02-11T02:16:24.687Z,301.85
2019-02-11T02:17:24.701Z,301.93
2019-02-11T02:18:24.678Z,301.78
2019-02-11T02:19:24.670Z,301.93
2019-02-11T02:20:24.620Z,301.96
2019-02-11T02:21:24.665Z,302.02
2019-02-11T02:22:24.654Z,301.84
2019-02-11T02:23:24.607Z,301.99
2019-02-11T02:24:24.596Z,301.77
2019-02-11T02:25:24.629Z,301.87
2019-02-11T02:26:24.603Z,301.87
2019-02-11T02:27:25.409Z,301.90
2019-02-11T02:28:24.631Z,301.89
2019-02-11T02:29:24.557Z,302.03
2019-02-11T02:30:24.525Z,301.89
2019-02-11T02:31:24.530Z,301.90
2019-02-11T02:32:24.542Z,302.06
2019-02-11T02:33:24.506Z,301.65
2019-02-11T02:34:24.495Z,301.96
2019-02-11T02:35:24.564Z,301.86
2019-02-11T02:36:24.516Z,301.94
2019-02-11T02:37:24.564Z,301.86
2019-02-11T02:38:24.502Z,301.70
2019-02-11T02:39:24.921Z,301.69
2019-02-11T02:40:24.441Z,301.75
2019-02-11T02:41:24.428Z,301.82
2019-02-11T02:42:24.455Z,301.78
2019-02-11T02:43:24.406Z,301.95
2019-02-11T02:44:24.388Z,301.98
2019-02-11T02:45:24.391Z,301.88
2019-02-11T02:46:24.358Z,301.85
2019-02-11T02:47:24.356Z,301.95
2019-02-11T02:48:24.341Z,301.85
2019-02-11T02:49:24.331Z,301.83
2019-02-11T02:50:24.306Z,301.76
2019-02-11T02:51:24.321Z,301.74
2019-02-11T02:52:24.300Z,301.85
2019-02-11T02:53:24.331Z,301.84
2019-02-11T02:54:24.255Z,301.87
2019-02-11T02:55:24.245Z,301.98
2019-02-11T02:56:24.231Z,301.94
2019-02-11T02:57:24.229Z,301.90
2019-02-11T02:58:24.234Z,302.00
2019-02-11T02:59:24.302Z,301.99
2019-02-11T03:00:24.246Z,301.92
2019-02-11T03:01:24.241Z,302.01
2019-02-11T03:02:24.177Z,301.92
2019-02-11T03:03:24.245Z,301.94
2019-02-11T03:04:24.254Z,301.97
2019-02-11T03:05:24.168Z,302.02
2019-02-11T03:06:24.151Z,301.87
2019-02-11T03:07:24.131Z,301.92
2019-02-11T03:08:24.113Z,301.91
2019-02-11T03:09:24.161Z,302.03
2019-02-11T03:10:24.174Z,301.95
2019-02-11T03:11:24.098Z,301.93
2019-02-11T03:12:24.070Z,301.91
2019-02-11T03:13:24.086Z,302.04
2019-02-11T03:14:24.075Z,301.91
2019-02-11T03:15:24.099Z,302.01
2019-02-11T03:16:24.252Z,302.24
2019-02-11T03:17:24.023Z,302.42
2019-02-11T03:18:24.028Z,302.10
2019-02-11T03:19:23.985Z,302.28
2019-02-11T03:20:23.989Z,302.18
2019-02-11T03:21:23.989Z,302.38
2019-02-11T03:22:24.016Z,302.21
2019-02-11T03:23:24.005Z,302.25
2019-02-11T03:24:23.958Z,302.14
2019-02-11T03:25:23.930Z,302.37
2019-02-11T03:26:23.963Z,302.25
2019-02-11T03:27:23.940Z,302.34
2019-02-11T03:28:23.927Z,302.45
2019-02-11T03:29:23.913Z,302.55
2019-02-11T03:30:23.870Z,302.55
2019-02-11T03:31:23.901Z,302.33
2019-02-11T03:32:23.868Z,302.28
2019-02-11T03:33:23.881Z,302.25
2019-02-11T03:34:23.860Z,302.56
2019-02-11T03:35:23.856Z,302.53
2019-02-11T03:36:23.816Z,302.37
2019-02-11T03:37:23.878Z,302.52
2019-02-11T03:38:23.874Z,302.45
2019-02-11T03:39:23.802Z,302.49
2019-02-11T03:40:23.787Z,302.54
2019-02-11T03:41:23.781Z,302.62
2019-02-11T03:42:23.811Z,302.58
2019-02-11T03:43:23.746Z,302.69
2019-02-11T03:44:23.762Z,302.43
2019-02-11T03:45:23.774Z,302.57
2019-02-11T03:46:23.736Z,302.65
2019-02-11T03:47:23.701Z,302.65
2019-02-11T03:48:23.759Z,302.61
2019-02-11T03:49:23.704Z,302.91
2019-02-11T03:50:23.716Z,302.56
2019-02-11T03:51:23.715Z,302.84
2019-02-11T03:52:23.670Z,302.87
2019-02-11T03:53:23.691Z,302.71
2019-02-11T03:54:23.657Z,302.59
2019-02-11T03:55:23.618Z,302.66
2019-02-11T03:56:23.664Z,302.96
2019-02-11T03:57:23.619Z,302.77
2019-02-11T03:58:23.666Z,302.57
2019-02-11T03:59:23.658Z,302.79
2019-02-11T04:00:23.580Z,302.85
2019-02-11T04:01:23.586Z,302.89
2019-02-11T04:02:23.549Z,302.89
2019-02-11T04:03:23.588Z,302.84
2019-02-11T04:04:23.541Z,302.83
2019-02-11T04:05:23.545Z,302.90
2019-02-11T04:06:23.593Z,302.96
2019-02-11T04:07:23.551Z,302.80
2019-02-11T04:08:23.533Z,303.03
2019-02-11T04:09:23.496Z,302.93
2019-02-11T04:10:23.491Z,303.28
2019-02-11T04:11:23.460Z,303.11
2019-02-11T04:12:23.454Z,302.96
2019-02-11T04:13:23.454Z,302.81
2019-02-11T04:14:25.182Z,302.85
2019-02-11T04:15:23.440Z,302.95
2019-02-11T04:16:23.438Z,302.83
2019-02-11T04:17:23.425Z,302.86
2019-02-11T04:18:23.393Z,302.92
2019-02-11T04:19:23.379Z,302.83
2019-02-11T04:20:23.440Z,302.88
2019-02-11T04:21:23.350Z,302.86
2019-02-11T04:22:23.409Z,303.15
2019-02-11T04:23:23.333Z,303.03
2019-02-11T04:24:23.330Z,303.08
2019-02-11T04:25:23.331Z,303.12
2019-02-11T04:26:23.323Z,302.93
2019-02-11T04:27:23.294Z,303.01
2019-02-11T04:28:23.275Z,303.18
2019-02-11T04:29:23.284Z,302.88
2019-02-11T04:30:23.282Z,302.97
2019-02-11T04:31:23.317Z,303.01
2019-02-11T04:32:23.237Z,303.09
2019-02-11T04:33:23.243Z,303.06
2019-02-11T04:34:23.229Z,303.12
2019-02-11T04:35:23.219Z,302.76
2019-02-11T04:36:23.184Z,302.98
2019-02-11T04:37:23.222Z,302.99
2019-02-11T04:38:23.169Z,302.65
2019-02-11T04:39:23.189Z,303.02
2019-02-11T04:40:23.202Z,303.00
2019-02-11T04:41:23.766Z,302.98
2019-02-11T04:42:23.219Z,302.95
2019-02-11T04:43:23.133Z,302.80
2019-02-11T04:44:23.152Z,302.97
2019-02-11T04:45:23.105Z,302.75
2019-02-11T04:46:23.138Z,302.92
2019-02-11T04:47:23.108Z,302.83
2019-02-11T04:48:23.102Z,302.75
2019-02-11T04:49:23.091Z,302.82
2019-02-11T04:50:23.076Z,302.68
2019-02-11T04:51:23.041Z,302.85
2019-02-11T04:52:23.040Z,302.62
2019-02-11T04:53:23.129Z,302.95
2019-02-11T04:54:23.028Z,302.83
2019-02-11T04:55:23.055Z,302.76
2019-02-11T04:56:23.017Z,302.79
2019-02-11T04:57:23.010Z,302.61
2019-02-11T04:58:22.975Z,302.64
2019-02-11T04:59:22.988Z,302.88
2019-02-11T05:00:22.970Z,302.82
2019-02-11T05:01:22.938Z,302.74
2019-02-11T05:02:22.955Z,302.81
2019-02-11T05:03:22.977Z,302.69
2019-02-11T05:04:22.945Z,302.67
2019-02-11T05:05:22.941Z,302.64
2019-02-11T05:06:22.909Z,302.64
2019-02-11T05:07:22.918Z,302.71
2019-02-11T05:08:22.894Z,302.55
2019-02-11T05:09:22.874Z,302.59
2019-02-11T05:10:22.911Z,302.71
2019-02-11T05:11:22.845Z,302.80
2019-02-11T05:12:22.857Z,302.60
2019-02-11T05:13:22.833Z,302.59
2019-02-11T05:14:22.843Z,302.75
2019-02-11T05:15:22.815Z,302.76
2019-02-11T05:16:22.793Z,302.62
2019-02-11T05:17:22.820Z,302.45
2019-02-11T05:18:22.788Z,302.61
2019-02-11T05:19:22.812Z,302.75
2019-02-11T05:20:22.764Z,302.37
2019-02-11T05:21:22.766Z,302.62
2019-02-11T05:22:22.737Z,302.65
2019-02-11T05:23:22.739Z,302.70
2019-02-11T05:24:22.731Z,302.61
2019-02-11T05:25:22.738Z,302.48
2019-02-11T05:26:22.929Z,302.61
2019-02-11T05:27:22.685Z,302.67
2019-02-11T05:28:22.741Z,302.61
2019-02-11T05:29:22.675Z,302.65
2019-02-11T05:30:22.654Z,302.50
2019-02-11T05:31:22.635Z,302.42
2019-02-11T05:32:22.720Z,302.53
2019-02-11T05:33:22.666Z,302.46
2019-02-11T05:34:22.632Z,302.46
2019-02-11T05:35:22.635Z,302.53
2019-02-11T05:36:22.597Z,302.56
2019-02-11T05:37:22.591Z,302.67
2019-02-11T05:38:22.583Z,302.44
2019-02-11T05:39:22.572Z,302.59
2019-02-11T05:40:22.555Z,302.52
2019-02-11T05:41:22.652Z,302.69
2019-02-11T05:42:22.740Z,302.57
2019-02-11T05:43:22.654Z,302.69
2019-02-11T05:44:22.548Z,302.56
2019-02-11T05:45:22.635Z,302.44
2019-02-11T05:46:22.536Z,302.60
2019-02-11T05:47:22.520Z,302.51
2019-02-11T05:48:22.603Z,302.47
2019-02-11T05:49:23.963Z,302.42
2019-02-11T05:50:22.539Z,302.46
2019-02-11T05:51:22.674Z,302.57
2019-02-11T05:52:22.711Z,302.53
2019-02-11T05:53:23.433Z,302.65
2019-02-11T05:54:22.419Z,302.54
2019-02-11T05:55:23.901Z,302.66
2019-02-11T05:56:22.376Z,302.47
2019-02-11T05:57:22.417Z,302.61
2019-02-11T05:58:22.407Z,302.44
2019-02-11T05:59:22.420Z,302.43
2019-02-11T06:00:22.382Z,302.60
2019-02-11T06:01:22.366Z,302.52
2019-02-11T06:02:22.331Z,302.77
2019-02-11T06:03:22.356Z,302.42
2019-02-11T06:04:22.316Z,302.57
2019-02-11T06:05:22.292Z,302.58
2019-02-11T06:06:22.339Z,302.57
2019-02-11T06:07:22.305Z,302.60
2019-02-11T06:08:22.346Z,302.70
2019-02-11T06:09:23.289Z,302.41
2019-02-11T06:10:22.288Z,302.40
2019-02-11T06:11:22.237Z,302.56
2019-02-11T06:12:22.295Z,302.57
2019-02-11T06:13:22.226Z,302.54
2019-02-11T06:14:22.248Z,302.66
2019-02-11T06:15:22.190Z,302.63
2019-02-11T06:16:22.200Z,302.43
2019-02-11T06:17:22.170Z,302.63
2019-02-11T06:18:22.175Z,302.65
2019-02-11T06:19:22.193Z,302.53
2019-02-11T06:20:22.190Z,302.56
2019-02-11T06:21:22.178Z,302.72
2019-02-11T06:22:22.133Z,302.34
2019-02-11T06:23:22.104Z,302.70
2019-02-11T06:24:22.127Z,302.56
2019-02-11T06:25:22.162Z,302.42
2019-02-11T06:26:22.110Z,302.37
2019-02-11T06:27:22.058Z,302.56
2019-02-11T06:28:22.061Z,302.60
2019-02-11T06:29:22.074Z,302.52
2019-02-11T06:30:22.087Z,302.63
2019-02-11T06:31:22.084Z,302.59
2019-02-11T06:32:22.076Z,302.58
2019-02-11T06:33:21.995Z,302.51
2019-02-11T06:34:22.058Z,302.69
2019-02-11T06:35:22.047Z,302.40
2019-02-11T06:36:21.979Z,302.48
2019-02-11T06:37:22.032Z,302.69
2019-02-11T06:38:21.965Z,302.62
2019-02-11T06:39:21.980Z,302.54
2019-02-11T06:40:21.983Z,302.45
2019-02-11T06:41:21.941Z,302.54
2019-02-11T06:42:21.943Z,302.59
2019-02-11T06:43:21.935Z,302.62
2019-02-11T06:44:21.932Z,302.55
2019-02-11T06:45:21.900Z,302.44
2019-02-11T06:46:22.015Z,302.36
2019-02-11T06:47:21.920Z,302.45
2019-02-11T06:48:21.856Z,302.58
2019-02-11T06:49:21.847Z,302.66
2019-02-11T06:50:21.856Z,302.52
2019-02-11T06:51:21.860Z,302.40
2019-02-11T06:52:21.874Z,302.53
2019-02-11T06:53:21.808Z,302.71
2019-02-11T06:54:21.992Z,302.38
2019-02-11T06:55:21.787Z,302.59
2019-02-11T06:56:21.811Z,302.46
2019-02-11T06:57:21.782Z,302.45
2019-02-11T06:58:21.823Z,302.55
2019-02-11T06:59:21.767Z,302.43
2019-02-11T07:00:21.732Z,302.48
2019-02-11T07:01:21.747Z,302.71
2019-02-11T07:02:23.710Z,302.69
2019-02-11T07:03:21.790Z,302.51
2019-02-11T07:04:21.701Z,302.58
2019-02-11T07:05:21.707Z,302.60
2019-02-11T07:06:21.679Z,302.57
2019-02-11T07:07:21.699Z,302.44
2019-02-11T07:08:21.651Z,302.45
2019-02-11T07:09:21.660Z,302.64
2019-02-11T07:10:21.618Z,302.64
2019-02-11T07:11:21.628Z,302.56
2019-02-11T07:12:21.635Z,302.52
2019-02-11T07:13:21.608Z,302.49
2019-02-11T07:14:21.593Z,302.62
2019-02-11T07:15:22.576Z,302.56
2019-02-11T07:16:21.600Z,302.58
2019-02-11T07:17:21.552Z,302.61
2019-02-11T07:18:21.625Z,302.54
2019-02-11T07:19:21.557Z,302.42
2019-02-11T07:20:21.543Z,302.54
2019-02-11T07:21:21.533Z,302.34
2019-02-11T07:22:22.366Z,302.67
2019-02-11T07:23:21.485Z,302.60
2019-02-11T07:24:21.479Z,302.54
2019-02-11T07:25:21.462Z,302.52
2019-02-11T07:26:21.488Z,302.75
2019-02-11T07:27:21.468Z,302.41
2019-02-11T07:28:21.434Z,302.43
2019-02-11T07:29:21.422Z,302.56
2019-02-11T07:30:21.451Z,302.58
2019-02-11T07:31:21.430Z,302.47
2019-02-11T07:32:21.537Z,302.49
2019-02-11T07:33:21.392Z,302.65
2019-02-11T07:34:21.367Z,302.68
2019-02-11T07:35:21.380Z,302.64
2019-02-11T07:36:22.944Z,302.62
2019-02-11T07:37:21.355Z,302.75
2019-02-11T07:38:21.355Z,302.40
2019-02-11T07:39:21.336Z,302.35
2019-02-11T07:40:21.360Z,302.70
2019-02-11T07:41:21.291Z,302.45
2019-02-11T07:42:21.350Z,302.71
2019-02-11T07:43:23.930Z,302.62
2019-02-11T07:44:21.301Z,302.69
2019-02-11T07:45:28.694Z,302.55
2019-02-11T07:46:22.242Z,302.85
2019-02-11T07:47:21.240Z,302.59
2019-02-11T07:48:21.265Z,302.66
2019-02-11T07:49:21.238Z,302.50
2019-02-11T07:50:21.242Z,302.49
2019-02-11T07:51:21.219Z,302.57
2019-02-11T07:52:26.646Z,302.45
2019-02-11T07:53:22.265Z,302.51
2019-02-11T07:54:21.289Z,302.32
2019-02-11T07:55:21.192Z,302.48
2019-02-11T07:56:21.191Z,302.27
2019-02-11T07:57:21.228Z,302.01
2019-02-11T07:58:21.153Z,302.07
2019-02-11T07:59:21.108Z,302.18
2019-02-11T08:00:21.084Z,302.04
2019-02-11T08:01:21.083Z,302.06
2019-02-11T08:02:21.084Z,301.92
2019-02-11T08:03:21.073Z,302.30
2019-02-11T08:04:21.080Z,302.08
2019-02-11T08:05:21.051Z,302.27
2019-02-11T08:06:21.149Z,302.22
2019-02-11T08:07:21.890Z,302.15
2019-02-11T08:08:23.916Z,302.15
2019-02-11T08:09:20.999Z,302.17
2019-02-11T08:10:21.012Z,302.29
2019-02-11T08:11:20.973Z,302.42
2019-02-11T08:12:20.970Z,302.46
2019-02-11T08:13:21.026Z,302.20
2019-02-11T08:14:20.987Z,302.44
2019-02-11T08:15:20.989Z,302.30
2019-02-11T08:16:21.033Z,302.36
2019-02-11T08:17:20.915Z,302.29
2019-02-11T08:18:21.840Z,302.52
2019-02-11T08:19:20.907Z,302.44
2019-02-11T08:20:21.894Z,302.50
2019-02-11T08:21:20.903Z,302.47
2019-02-11T08:22:20.893Z,302.50
2019-02-11T08:23:20.867Z,302.48
2019-02-11T08:24:20.875Z,302.49
2019-02-11T08:25:21.428Z,302.55
2019-02-11T08:26:21.515Z,302.74
2019-02-11T08:27:20.849Z,302.67
2019-02-11T08:28:20.857Z,302.86
2019-02-11T08:29:20.872Z,302.64
2019-02-11T08:30:20.780Z,302.69
2019-02-11T08:31:22.427Z,302.72
2019-02-11T08:32:20.790Z,302.63
2019-02-11T08:33:20.853Z,302.57
2019-02-11T08:34:20.779Z,302.80
2019-02-11T08:35:20.746Z,302.74
2019-02-11T08:36:20.790Z,302.67
2019-02-11T08:37:20.703Z,302.96
2019-02-11T08:38:20.700Z,302.70
2019-02-11T08:39:21.419Z,302.73
2019-02-11T08:40:20.665Z,302.76
2019-02-11T08:41:20.687Z,302.78
2019-02-11T08:42:20.671Z,302.57
2019-02-11T08:43:20.831Z,302.89
2019-02-11T08:44:20.626Z,302.61
2019-02-11T08:45:20.656Z,302.46
2019-02-11T08:46:20.632Z,302.77
2019-02-11T08:47:21.055Z,302.63
2019-02-11T08:48:20.675Z,302.74
2019-02-11T08:49:20.575Z,302.76
2019-02-11T08:50:20.566Z,302.79
2019-02-11T08:51:20.597Z,302.88
2019-02-11T08:52:20.591Z,302.85
2019-02-11T08:53:20.568Z,302.93
2019-02-11T08:54:20.589Z,302.65
2019-02-11T08:55:20.515Z,302.66
2019-02-11T08:56:20.517Z,302.67
2019-02-11T08:57:20.519Z,302.88
2019-02-11T08:58:20.498Z,302.78
2019-02-11T08:59:20.512Z,302.73
2019-02-11T09:00:20.509Z,302.75
2019-02-11T09:01:20.476Z,302.60
2019-02-11T09:02:20.623Z,302.50
2019-02-11T09:03:20.457Z,302.57
2019-02-11T09:04:20.468Z,302.64
2019-02-11T09:05:20.462Z,302.49
2019-02-11T09:06:20.510Z,302.55
2019-02-11T09:07:20.441Z,302.60
2019-02-11T09:08:20.408Z,302.39
2019-02-11T09:09:20.386Z,302.47
2019-02-11T09:10:20.409Z,302.38
2019-02-11T09:11:20.536Z,302.53
2019-02-11T09:12:20.357Z,302.50
2019-02-11T09:13:20.386Z,302.42
2019-02-11T09:14:20.384Z,302.60
2019-02-11T09:15:20.320Z,302.59
2019-02-11T09:16:30.981Z,302.44
2019-02-11T09:17:20.325Z,302.65
2019-02-11T09:18:20.832Z,302.67
2019-02-11T09:19:20.291Z,302.52
2019-02-11T09:20:20.265Z,302.51
2019-02-11T09:21:20.228Z,302.55
2019-02-11T09:22:20.313Z,302.61
2019-02-11T09:23:20.248Z,302.44
2019-02-11T09:24:20.233Z,302.45
2019-02-11T09:25:20.234Z,302.16
2019-02-11T09:26:20.250Z,302.51
2019-02-11T09:27:20.218Z,302.52
2019-02-11T09:28:20.204Z,302.45
2019-02-11T09:29:20.159Z,302.59
2019-02-11T09:30:20.181Z,302.67
2019-02-11T09:31:20.183Z,302.53
2019-02-11T09:32:20.174Z,302.55
2019-02-11T09:33:20.245Z,302.66
2019-02-11T09:34:20.219Z,302.65
2019-02-11T09:35:20.116Z,302.59
2019-02-11T09:36:20.113Z,302.49
2019-02-11T09:37:20.095Z,302.43
2019-02-11T09:38:20.067Z,302.50
2019-02-11T09:39:20.189Z,302.63
2019-02-11T09:40:20.042Z,302.49
2019-02-11T09:41:20.157Z,302.55
2019-02-11T09:42:20.085Z,302.58
2019-02-11T09:43:20.045Z,302.72
2019-02-11T09:44:20.000Z,302.63
2019-02-11T09:45:20.018Z,302.66
2019-02-11T09:46:19.992Z,302.55
2019-02-11T09:47:19.976Z,302.83
2019-02-11T09:48:20.048Z,302.76
2019-02-11T09:49:19.965Z,302.68
2019-02-11T09:50:20.041Z,302.63
2019-02-11T09:51:19.958Z,302.55
2019-02-11T09:52:19.921Z,302.52
2019-02-11T09:53:19.944Z,302.80
2019-02-11T09:54:19.940Z,302.57
2019-02-11T09:55:19.937Z,302.89
2019-02-11T09:56:19.937Z,302.86
2019-02-11T09:57:19.885Z,302.89
2019-02-11T09:58:19.902Z,302.62
2019-02-11T09:59:19.848Z,302.71
2019-02-11T10:00:19.902Z,302.72
2019-02-11T10:01:19.828Z,302.61
2019-02-11T10:02:19.857Z,302.56
2019-02-11T10:03:19.803Z,302.65
2019-02-11T10:04:19.785Z,302.68
2019-02-11T10:05:19.835Z,302.37
2019-02-11T10:06:19.783Z,302.44
2019-02-11T10:07:19.842Z,302.58
2019-02-11T10:08:19.937Z,302.70
2019-02-11T10:09:19.776Z,302.55
2019-02-11T10:10:20.137Z,302.54
2019-02-11T10:11:19.765Z,302.61
2019-02-11T10:12:21.483Z,302.51
2019-02-11T10:13:19.691Z,302.57
2019-02-11T10:14:19.745Z,302.35
2019-02-11T10:15:19.707Z,302.49
2019-02-11T10:16:19.664Z,302.30
2019-02-11T10:17:19.672Z,302.34
2019-02-11T10:18:19.717Z,302.39
2019-02-11T10:19:19.684Z,302.55
2019-02-11T10:20:19.757Z,302.36
2019-02-11T10:21:19.634Z,302.62
2019-02-11T10:22:19.738Z,302.27
2019-02-11T10:23:19.597Z,302.65
2019-02-11T10:24:19.716Z,302.41
2019-02-11T10:25:19.593Z,302.45
2019-02-11T10:26:19.559Z,302.31
2019-02-11T10:27:19.556Z,302.46
2019-02-11T10:28:19.574Z,302.56
2019-02-11T10:29:19.558Z,302.43
2019-02-11T10:30:19.532Z,302.40
2019-02-11T10:31:19.558Z,302.46
2019-02-11T10:32:19.532Z,302.49
2019-02-11T10:33:19.498Z,302.56
2019-02-11T10:34:19.478Z,302.58
2019-02-11T10:35:19.490Z,302.54
2019-02-11T10:36:19.471Z,302.61
2019-02-11T10:37:19.442Z,302.56
2019-02-11T10:38:19.573Z,302.57
2019-02-11T10:39:19.470Z,302.54
2019-02-11T10:40:19.443Z,302.55
2019-02-11T10:41:19.575Z,302.53
2019-02-11T10:44:21.715Z,301.91
2019-02-11T10:45:21.680Z,302.45
2019-02-11T10:46:21.650Z,302.49
2019-02-11T10:47:21.648Z,302.54
2019-02-11T10:48:21.620Z,302.24
2019-02-11T10:49:21.617Z,302.38
2019-02-11T10:50:21.609Z,302.50
2019-02-11T10:51:21.581Z,302.35
2019-02-11T10:52:21.605Z,302.22
2019-02-11T10:53:21.608Z,302.25
2019-02-11T10:54:21.621Z,302.26
2019-02-11T10:55:21.556Z,302.40
2019-02-11T10:56:21.878Z,302.13
2019-02-11T10:57:21.513Z,302.26
2019-02-11T10:58:21.500Z,302.05
2019-02-11T10:59:21.609Z,302.33
2019-02-11T11:00:21.557Z,302.30
2019-02-11T11:01:21.493Z,302.24
2019-02-11T11:02:21.462Z,302.25
2019-02-11T11:03:21.461Z,302.12
2019-02-11T11:04:21.456Z,301.93
2019-02-11T11:05:21.669Z,302.10
2019-02-11T11:06:21.468Z,302.09
2019-02-11T11:07:21.404Z,302.16
2019-02-11T11:08:21.468Z,302.40
2019-02-11T11:09:21.458Z,302.16
2019-02-11T11:10:21.377Z,302.20
2019-02-11T11:11:21.380Z,302.17
2019-02-11T11:12:21.537Z,302.31
2019-02-11T11:13:21.368Z,302.01
2019-02-11T11:14:21.346Z,302.02
2019-02-11T11:15:21.388Z,302.00
2019-02-11T11:16:29.181Z,302.18
2019-02-11T11:17:22.320Z,301.83
2019-02-11T11:18:21.312Z,301.91
2019-02-11T11:19:21.289Z,302.17
2019-02-11T11:20:21.288Z,302.10
2019-02-11T11:21:21.263Z,302.21
2019-02-11T11:22:21.265Z,302.10
2019-02-11T11:23:21.251Z,302.04
2019-02-11T11:24:21.249Z,301.94
2019-02-11T11:25:21.287Z,301.92
2019-02-11T11:26:21.213Z,302.23
2019-02-11T11:27:21.214Z,302.10
2019-02-11T11:28:21.206Z,301.87
2019-02-11T11:29:21.184Z,301.91
2019-02-11T11:30:21.235Z,302.13
2019-02-11T11:31:21.156Z,302.13
2019-02-11T11:32:21.159Z,301.97
2019-02-11T11:33:21.170Z,301.82
2019-02-11T11:34:21.132Z,302.00
2019-02-11T11:35:21.164Z,301.87
2019-02-11T11:36:21.152Z,302.21
2019-02-11T11:37:21.127Z,301.91
2019-02-11T11:38:22.105Z,302.02
2019-02-11T11:39:21.228Z,301.92
2019-02-11T11:40:23.217Z,302.03
2019-02-11T11:41:21.214Z,301.82
2019-02-11T11:42:21.717Z,301.79
2019-02-11T11:43:21.061Z,301.73
2019-02-11T11:44:21.073Z,301.82
2019-02-11T11:45:21.025Z,301.70
2019-02-11T11:46:21.057Z,301.52
2019-02-11T11:47:21.046Z,301.79
2019-02-11T11:48:21.018Z,301.76
2019-02-11T11:49:21.116Z,301.55
2019-02-11T11:50:21.018Z,301.76
2019-02-11T11:51:20.976Z,301.45
2019-02-11T11:52:20.963Z,301.80
2019-02-11T11:53:20.983Z,301.58
2019-02-11T11:54:20.947Z,301.72
2019-02-11T11:55:20.938Z,301.60
2019-02-11T11:56:20.916Z,301.61
2019-02-11T11:57:20.917Z,301.59
2019-02-11T11:58:20.971Z,301.49
2019-02-11T11:59:21.095Z,301.65
2019-02-11T12:00:20.942Z,301.65
2019-02-11T12:01:20.851Z,301.81
2019-02-11T12:02:20.843Z,301.65
2019-02-11T12:03:21.957Z,301.62
2019-02-11T12:04:20.863Z,301.42
2019-02-11T12:05:20.883Z,301.84
2019-02-11T12:06:20.805Z,301.62
2019-02-11T12:07:20.787Z,301.70
2019-02-11T12:08:20.801Z,301.36
2019-02-11T12:09:20.821Z,301.89
2019-02-11T12:10:20.871Z,301.82
2019-02-11T12:11:20.827Z,301.72
2019-02-11T12:12:20.738Z,301.65
2019-02-11T12:13:23.310Z,301.62
2019-02-11T12:14:20.756Z,301.53
2019-02-11T12:15:20.748Z,301.79
2019-02-11T12:16:20.704Z,301.69
2019-02-11T12:17:20.682Z,301.69
2019-02-11T12:18:20.668Z,301.43
2019-02-11T12:19:20.716Z,301.64
2019-02-11T12:20:20.685Z,301.55
2019-02-11T12:21:20.640Z,301.42
2019-02-11T12:22:20.636Z,301.64
2019-02-11T12:23:20.644Z,301.55
2019-02-11T12:24:21.234Z,301.68
2019-02-11T12:25:20.636Z,301.36
2019-02-11T12:26:21.731Z,301.54
2019-02-11T12:27:20.615Z,301.27
2019-02-11T12:28:20.610Z,301.03
2019-02-11T12:29:20.560Z,301.00
2019-02-11T12:30:20.554Z,300.78